sensor_id;sensor_type;location;lat;lon;timestamp;P1;durP1;ratioP1;P2;durP2;ratioP2
11865;SDS011;5992;52.744;6.898;2024-01-30T00:01:36;10.40;;;7.93;;
11865;SDS011;5992;52.744;6.898;2024-01-30T00:04:48;7.20;;;6.23;;
11865;SDS011;5992;52.744;6.898;2024-01-30T00:07:49;8.70;;;7.40;;
11865;SDS011;5992;52.744;6.898;2024-01-30T00:11:17;9.03;;;6.17;;
11865;SDS011;5992;52.744;6.898;2024-01-30T00:14:17;10.13;;;6.27;;
11865;SDS011;5992;52.744;6.898;2024-01-30T00:17:30;8.90;;;7.27;;
11865;SDS011;5992;52.744;6.898;2024-01-30T00:20:30;10.00;;;7.60;;
11865;SDS011;5992;52.744;6.898;2024-01-30T00:24:05;8.93;;;6.73;;
11865;SDS011;5992;52.744;6.898;2024-01-30T00:27:21;9.47;;;7.70;;
11865;SDS011;5992;52.744;6.898;2024-01-30T00:30:37;9.50;;;8.00;;
11865;SDS011;5992;52.744;6.898;2024-01-30T00:33:37;11.87;;;7.77;;
11865;SDS011;5992;52.744;6.898;2024-01-30T00:36:58;10.60;;;7.13;;
11865;SDS011;5992;52.744;6.898;2024-01-30T00:40:02;12.30;;;8.10;;
11865;SDS011;5992;52.744;6.898;2024-01-30T00:43:34;10.30;;;7.13;;
11865;SDS011;5992;52.744;6.898;2024-01-30T00:46:49;10.70;;;7.63;;
11865;SDS011;5992;52.744;6.898;2024-01-30T00:50:07;11.13;;;7.60;;
11865;SDS011;5992;52.744;6.898;2024-01-30T00:53:19;10.65;;;7.25;;
11865;SDS011;5992;52.744;6.898;2024-01-30T00:56:32;8.73;;;7.13;;
11865;SDS011;5992;52.744;6.898;2024-01-30T00:59:45;12.93;;;7.70;;
11865;SDS011;5992;52.744;6.898;2024-01-30T01:03:04;8.30;;;6.33;;
11865;SDS011;5992;52.744;6.898;2024-01-30T01:06:04;9.13;;;6.70;;
11865;SDS011;5992;52.744;6.898;2024-01-30T01:09:20;11.17;;;6.47;;
11865;SDS011;5992;52.744;6.898;2024-01-30T01:12:21;7.87;;;6.10;;
11865;SDS011;5992;52.744;6.898;2024-01-30T01:15:59;8.63;;;7.10;;
11865;SDS011;5992;52.744;6.898;2024-01-30T01:18:59;7.33;;;6.13;;
11865;SDS011;5992;52.744;6.898;2024-01-30T01:22:12;14.90;;;7.27;;
11865;SDS011;5992;52.744;6.898;2024-01-30T01:25:12;10.23;;;6.60;;
11865;SDS011;5992;52.744;6.898;2024-01-30T01:28:29;8.73;;;6.20;;
11865;SDS011;5992;52.744;6.898;2024-01-30T01:31:52;8.20;;;6.40;;
11865;SDS011;5992;52.744;6.898;2024-01-30T01:35:10;12.80;;;6.40;;
11865;SDS011;5992;52.744;6.898;2024-01-30T01:38:10;8.53;;;6.27;;
11865;SDS011;5992;52.744;6.898;2024-01-30T01:41:38;7.57;;;6.10;;
11865;SDS011;5992;52.744;6.898;2024-01-30T01:44:45;9.57;;;6.50;;
11865;SDS011;5992;52.744;6.898;2024-01-30T01:48:16;11.43;;;6.37;;
11865;SDS011;5992;52.744;6.898;2024-01-30T01:51:16;10.80;;;6.40;;
11865;SDS011;5992;52.744;6.898;2024-01-30T01:54:29;7.93;;;5.83;;
11865;SDS011;5992;52.744;6.898;2024-01-30T01:58:01;7.43;;;5.73;;
11865;SDS011;5992;52.744;6.898;2024-01-30T02:01:14;7.07;;;5.57;;
11865;SDS011;5992;52.744;6.898;2024-01-30T02:04:39;7.47;;;5.50;;
11865;SDS011;5992;52.744;6.898;2024-01-30T02:07:54;8.23;;;5.20;;
11865;SDS011;5992;52.744;6.898;2024-01-30T02:11:19;9.43;;;6.63;;
11865;SDS011;5992;52.744;6.898;2024-01-30T02:14:43;5.57;;;5.07;;
11865;SDS011;5992;52.744;6.898;2024-01-30T02:18:15;6.33;;;5.73;;
11865;SDS011;5992;52.744;6.898;2024-01-30T02:21:32;5.97;;;5.07;;
11865;SDS011;5992;52.744;6.898;2024-01-30T02:24:59;6.70;;;5.60;;
11865;SDS011;5992;52.744;6.898;2024-01-30T02:28:02;9.07;;;5.80;;
11865;SDS011;5992;52.744;6.898;2024-01-30T02:31:15;8.57;;;6.13;;
11865;SDS011;5992;52.744;6.898;2024-01-30T02:34:15;6.70;;;6.00;;
11865;SDS011;5992;52.744;6.898;2024-01-30T02:37:44;6.67;;;5.83;;
11865;SDS011;5992;52.744;6.898;2024-01-30T02:40:59;7.50;;;6.23;;
11865;SDS011;5992;52.744;6.898;2024-01-30T02:44:14;6.97;;;6.23;;
11865;SDS011;5992;52.744;6.898;2024-01-30T02:47:14;8.50;;;6.30;;
11865;SDS011;5992;52.744;6.898;2024-01-30T02:50:33;7.67;;;5.70;;
11865;SDS011;5992;52.744;6.898;2024-01-30T02:53:35;7.80;;;5.90;;
11865;SDS011;5992;52.744;6.898;2024-01-30T02:57:01;9.17;;;6.53;;
11865;SDS011;5992;52.744;6.898;2024-01-30T03:00:05;6.93;;;5.67;;
11865;SDS011;5992;52.744;6.898;2024-01-30T03:03:33;6.10;;;5.50;;
11865;SDS011;5992;52.744;6.898;2024-01-30T03:06:34;7.60;;;6.20;;
11865;SDS011;5992;52.744;6.898;2024-01-30T03:33:44;12.97;;;7.77;;
11865;SDS011;5992;52.744;6.898;2024-01-30T03:37:09;8.60;;;6.60;;
11865;SDS011;5992;52.744;6.898;2024-01-30T03:40:09;9.53;;;7.27;;
11865;SDS011;5992;52.744;6.898;2024-01-30T03:43:22;11.20;;;7.20;;
11865;SDS011;5992;52.744;6.898;2024-01-30T03:46:22;8.63;;;6.47;;
11865;SDS011;5992;52.744;6.898;2024-01-30T03:49:35;8.37;;;7.10;;
11865;SDS011;5992;52.744;6.898;2024-01-30T03:52:48;9.30;;;5.67;;
11865;SDS011;5992;52.744;6.898;2024-01-30T03:56:00;9.97;;;7.03;;
11865;SDS011;5992;52.744;6.898;2024-01-30T03:59:00;9.77;;;6.90;;
11865;SDS011;5992;52.744;6.898;2024-01-30T04:02:12;8.17;;;6.77;;
11865;SDS011;5992;52.744;6.898;2024-01-30T04:05:25;13.40;;;7.67;;
11865;SDS011;5992;52.744;6.898;2024-01-30T04:08:38;12.60;;;7.77;;
11865;SDS011;5992;52.744;6.898;2024-01-30T04:11:51;11.43;;;7.40;;
11865;SDS011;5992;52.744;6.898;2024-01-30T04:14:51;12.23;;;7.03;;
11865;SDS011;5992;52.744;6.898;2024-01-30T04:18:03;10.10;;;7.00;;
11865;SDS011;5992;52.744;6.898;2024-01-30T04:21:16;8.63;;;7.70;;
11865;SDS011;5992;52.744;6.898;2024-01-30T04:24:41;12.40;;;7.43;;
11865;SDS011;5992;52.744;6.898;2024-01-30T04:27:41;9.73;;;7.60;;
11865;SDS011;5992;52.744;6.898;2024-01-30T04:31:06;11.27;;;8.07;;
11865;SDS011;5992;52.744;6.898;2024-01-30T04:34:06;11.03;;;7.73;;
11865;SDS011;5992;52.744;6.898;2024-01-30T04:37:21;20.27;;;8.83;;
11865;SDS011;5992;52.744;6.898;2024-01-30T04:40:34;10.87;;;8.57;;
11865;SDS011;5992;52.744;6.898;2024-01-30T04:43:53;14.17;;;7.67;;
11865;SDS011;5992;52.744;6.898;2024-01-30T04:46:57;12.57;;;8.30;;
11865;SDS011;5992;52.744;6.898;2024-01-30T04:50:10;11.70;;;7.65;;
11865;SDS011;5992;52.744;6.898;2024-01-30T04:53:11;16.27;;;10.50;;
11865;SDS011;5992;52.744;6.898;2024-01-30T04:56:36;12.73;;;8.50;;
11865;SDS011;5992;52.744;6.898;2024-01-30T04:59:36;14.40;;;9.17;;
11865;SDS011;5992;52.744;6.898;2024-01-30T05:02:49;15.53;;;9.00;;
11865;SDS011;5992;52.744;6.898;2024-01-30T05:05:49;12.80;;;9.07;;
11865;SDS011;5992;52.744;6.898;2024-01-30T05:09:02;9.57;;;7.60;;
11865;SDS011;5992;52.744;6.898;2024-01-30T05:12:15;13.27;;;8.83;;
11865;SDS011;5992;52.744;6.898;2024-01-30T05:15:47;10.97;;;8.33;;
11865;SDS011;5992;52.744;6.898;2024-01-30T05:18:50;12.93;;;8.93;;
11865;SDS011;5992;52.744;6.898;2024-01-30T05:22:02;12.93;;;8.40;;
11865;SDS011;5992;52.744;6.898;2024-01-30T05:25:04;14.10;;;9.20;;
11865;SDS011;5992;52.744;6.898;2024-01-30T05:28:29;11.40;;;8.55;;
11865;SDS011;5992;52.744;6.898;2024-01-30T05:31:29;15.37;;;9.20;;
11865;SDS011;5992;52.744;6.898;2024-01-30T05:34:54;11.13;;;9.07;;
11865;SDS011;5992;52.744;6.898;2024-01-30T05:37:54;10.13;;;8.40;;
11865;SDS011;5992;52.744;6.898;2024-01-30T05:41:08;10.50;;;8.57;;
11865;SDS011;5992;52.744;6.898;2024-01-30T05:44:21;16.73;;;8.50;;
11865;SDS011;5992;52.744;6.898;2024-01-30T05:47:33;11.67;;;8.57;;
11865;SDS011;5992;52.744;6.898;2024-01-30T05:50:34;16.20;;;9.05;;
11865;SDS011;5992;52.744;6.898;2024-01-30T05:53:46;13.40;;;8.43;;
11865;SDS011;5992;52.744;6.898;2024-01-30T05:56:48;12.00;;;7.20;;
11865;SDS011;5992;52.744;6.898;2024-01-30T06:00:11;10.87;;;8.07;;
11865;SDS011;5992;52.744;6.898;2024-01-30T06:03:24;10.27;;;7.50;;
11865;SDS011;5992;52.744;6.898;2024-01-30T06:06:24;10.13;;;8.13;;
11865;SDS011;5992;52.744;6.898;2024-01-30T06:09:36;12.23;;;8.13;;
11865;SDS011;5992;52.744;6.898;2024-01-30T06:12:38;11.00;;;9.80;;
11865;SDS011;5992;52.744;6.898;2024-01-30T06:16:03;14.10;;;7.97;;
11865;SDS011;5992;52.744;6.898;2024-01-30T06:19:04;10.87;;;8.33;;
11865;SDS011;5992;52.744;6.898;2024-01-30T06:22:28;14.80;;;9.27;;
11865;SDS011;5992;52.744;6.898;2024-01-30T06:25:28;11.87;;;8.47;;
11865;SDS011;5992;52.744;6.898;2024-01-30T06:28:42;12.60;;;8.40;;
11865;SDS011;5992;52.744;6.898;2024-01-30T06:31:53;18.05;;;8.95;;
11865;SDS011;5992;52.744;6.898;2024-01-30T06:35:06;12.30;;;8.60;;
11865;SDS011;5992;52.744;6.898;2024-01-30T06:38:07;13.17;;;9.20;;
11865;SDS011;5992;52.744;6.898;2024-01-30T06:41:19;11.40;;;8.30;;
11865;SDS011;5992;52.744;6.898;2024-01-30T06:44:21;13.00;;;9.00;;
11865;SDS011;5992;52.744;6.898;2024-01-30T06:47:46;12.87;;;8.77;;
11865;SDS011;5992;52.744;6.898;2024-01-30T06:50:46;15.90;;;9.37;;
11865;SDS011;5992;52.744;6.898;2024-01-30T06:54:10;11.40;;;9.00;;
11865;SDS011;5992;52.744;6.898;2024-01-30T06:57:10;14.27;;;9.83;;
11865;SDS011;5992;52.744;6.898;2024-01-30T07:00:25;11.07;;;9.43;;
11865;SDS011;5992;52.744;6.898;2024-01-30T07:03:37;11.20;;;8.57;;
11865;SDS011;5992;52.744;6.898;2024-01-30T07:06:49;11.00;;;8.70;;
11865;SDS011;5992;52.744;6.898;2024-01-30T07:09:49;11.70;;;8.37;;
11865;SDS011;5992;52.744;6.898;2024-01-30T07:13:01;13.53;;;8.33;;
11865;SDS011;5992;52.744;6.898;2024-01-30T07:16:03;12.13;;;7.70;;
11865;SDS011;5992;52.744;6.898;2024-01-30T07:19:28;12.53;;;8.97;;
11865;SDS011;5992;52.744;6.898;2024-01-30T07:22:28;8.83;;;7.20;;
11865;SDS011;5992;52.744;6.898;2024-01-30T07:25:41;11.37;;;8.23;;
11865;SDS011;5992;52.744;6.898;2024-01-30T07:28:53;12.77;;;8.90;;
11865;SDS011;5992;52.744;6.898;2024-01-30T07:32:11;11.07;;;7.50;;
11865;SDS011;5992;52.744;6.898;2024-01-30T07:35:23;10.20;;;7.63;;
11865;SDS011;5992;52.744;6.898;2024-01-30T07:38:35;12.00;;;7.63;;
11865;SDS011;5992;52.744;6.898;2024-01-30T07:41:35;7.93;;;7.13;;
11865;SDS011;5992;52.744;6.898;2024-01-30T07:44:51;10.90;;;7.47;;
11865;SDS011;5992;52.744;6.898;2024-01-30T07:47:53;15.90;;;7.77;;
11865;SDS011;5992;52.744;6.898;2024-01-30T07:51:20;11.67;;;7.30;;
11865;SDS011;5992;52.744;6.898;2024-01-30T07:54:21;10.90;;;7.70;;
11865;SDS011;5992;52.744;6.898;2024-01-30T07:57:26;9.70;;;7.75;;
11865;SDS011;5992;52.744;6.898;2024-01-30T08:00:40;10.67;;;8.07;;
11865;SDS011;5992;52.744;6.898;2024-01-30T08:03:54;10.13;;;7.97;;
11865;SDS011;5992;52.744;6.898;2024-01-30T08:07:07;18.80;;;7.93;;
11865;SDS011;5992;52.744;6.898;2024-01-30T08:10:24;10.50;;;7.87;;
11865;SDS011;5992;52.744;6.898;2024-01-30T08:13:36;7.03;;;6.33;;
11865;SDS011;5992;52.744;6.898;2024-01-30T08:16:48;11.70;;;7.83;;
11865;SDS011;5992;52.744;6.898;2024-01-30T08:19:50;13.63;;;7.37;;
11865;SDS011;5992;52.744;6.898;2024-01-30T08:23:14;8.67;;;7.03;;
11865;SDS011;5992;52.744;6.898;2024-01-30T08:26:14;12.60;;;7.80;;
11865;SDS011;5992;52.744;6.898;2024-01-30T08:29:26;9.50;;;7.53;;
11865;SDS011;5992;52.744;6.898;2024-01-30T08:32:32;10.20;;;7.40;;
11865;SDS011;5992;52.744;6.898;2024-01-30T08:35:47;10.97;;;7.80;;
11865;SDS011;5992;52.744;6.898;2024-01-30T08:39:00;10.90;;;7.40;;
11865;SDS011;5992;52.744;6.898;2024-01-30T08:42:13;11.20;;;7.70;;
11865;SDS011;5992;52.744;6.898;2024-01-30T08:45:14;11.03;;;7.50;;
11865;SDS011;5992;52.744;6.898;2024-01-30T08:48:28;9.93;;;7.23;;
11865;SDS011;5992;52.744;6.898;2024-01-30T08:51:29;8.90;;;6.90;;
11865;SDS011;5992;52.744;6.898;2024-01-30T08:54:54;9.30;;;7.03;;
11865;SDS011;5992;52.744;6.898;2024-01-30T08:57:54;11.03;;;7.47;;
11865;SDS011;5992;52.744;6.898;2024-01-30T09:01:07;10.83;;;7.17;;
11865;SDS011;5992;52.744;6.898;2024-01-30T09:04:07;9.63;;;7.30;;
11865;SDS011;5992;52.744;6.898;2024-01-30T09:07:21;11.67;;;6.80;;
11865;SDS011;5992;52.744;6.898;2024-01-30T09:10:40;13.00;;;6.73;;
11865;SDS011;5992;52.744;6.898;2024-01-30T09:14:00;7.00;;;6.30;;
11865;SDS011;5992;52.744;6.898;2024-01-30T09:17:00;10.20;;;6.47;;
11865;SDS011;5992;52.744;6.898;2024-01-30T09:20:13;8.63;;;6.60;;
11865;SDS011;5992;52.744;6.898;2024-01-30T09:23:14;11.43;;;6.50;;
11865;SDS011;5992;52.744;6.898;2024-01-30T09:26:40;10.83;;;7.00;;
11865;SDS011;5992;52.744;6.898;2024-01-30T09:29:40;8.50;;;6.67;;
11865;SDS011;5992;52.744;6.898;2024-01-30T09:32:52;10.27;;;6.77;;
11865;SDS011;5992;52.744;6.898;2024-01-30T09:35:52;9.10;;;7.03;;
11865;SDS011;5992;52.744;6.898;2024-01-30T09:39:05;9.80;;;6.93;;
11865;SDS011;5992;52.744;6.898;2024-01-30T09:42:20;6.67;;;5.73;;
11865;SDS011;5992;52.744;6.898;2024-01-30T09:45:46;7.53;;;6.00;;
11865;SDS011;5992;52.744;6.898;2024-01-30T09:48:58;9.97;;;6.73;;
11865;SDS011;5992;52.744;6.898;2024-01-30T09:52:23;8.70;;;6.63;;
11865;SDS011;5992;52.744;6.898;2024-01-30T09:55:43;8.30;;;5.83;;
11865;SDS011;5992;52.744;6.898;2024-01-30T09:59:08;8.20;;;5.87;;
11865;SDS011;5992;52.744;6.898;2024-01-30T10:02:14;7.15;;;5.35;;
11865;SDS011;5992;52.744;6.898;2024-01-30T10:05:39;7.10;;;5.87;;
11865;SDS011;5992;52.744;6.898;2024-01-30T10:08:52;7.20;;;5.57;;
11865;SDS011;5992;52.744;6.898;2024-01-30T10:12:18;9.83;;;6.13;;
11865;SDS011;5992;52.744;6.898;2024-01-30T10:15:34;9.37;;;5.63;;
11865;SDS011;5992;52.744;6.898;2024-01-30T10:18:47;7.97;;;5.83;;
11865;SDS011;5992;52.744;6.898;2024-01-30T10:21:47;8.23;;;6.27;;
11865;SDS011;5992;52.744;6.898;2024-01-30T10:25:19;8.30;;;5.80;;
11865;SDS011;5992;52.744;6.898;2024-01-30T10:28:33;6.17;;;5.57;;
11865;SDS011;5992;52.744;6.898;2024-01-30T10:31:57;8.47;;;5.50;;
11865;SDS011;5992;52.744;6.898;2024-01-30T10:35:10;10.23;;;5.30;;
11865;SDS011;5992;52.744;6.898;2024-01-30T10:38:23;6.27;;;5.73;;
11865;SDS011;5992;52.744;6.898;2024-01-30T10:41:36;8.73;;;5.40;;
11865;SDS011;5992;52.744;6.898;2024-01-30T10:45:02;8.50;;;5.80;;
11865;SDS011;5992;52.744;6.898;2024-01-30T10:48:14;7.53;;;5.83;;
11865;SDS011;5992;52.744;6.898;2024-01-30T10:51:39;9.23;;;6.50;;
11865;SDS011;5992;52.744;6.898;2024-01-30T10:54:53;8.60;;;5.83;;
11865;SDS011;5992;52.744;6.898;2024-01-30T10:58:16;7.27;;;5.27;;
11865;SDS011;5992;52.744;6.898;2024-01-30T11:01:41;11.87;;;6.90;;
11865;SDS011;5992;52.744;6.898;2024-01-30T11:05:06;8.33;;;6.10;;
11865;SDS011;5992;52.744;6.898;2024-01-30T11:08:11;10.57;;;5.90;;
11865;SDS011;5992;52.744;6.898;2024-01-30T11:11:47;7.37;;;6.07;;
11865;SDS011;5992;52.744;6.898;2024-01-30T11:15:02;8.73;;;6.07;;
11865;SDS011;5992;52.744;6.898;2024-01-30T11:18:28;11.13;;;6.40;;
11865;SDS011;5992;52.744;6.898;2024-01-30T11:21:41;7.60;;;6.03;;
11865;SDS011;5992;52.744;6.898;2024-01-30T11:25:05;9.40;;;6.63;;
11865;SDS011;5992;52.744;6.898;2024-01-30T11:28:17;7.80;;;5.73;;
11865;SDS011;5992;52.744;6.898;2024-01-30T11:31:30;6.93;;;6.03;;
11865;SDS011;5992;52.744;6.898;2024-01-30T11:34:32;7.97;;;5.93;;
11865;SDS011;5992;52.744;6.898;2024-01-30T11:37:56;10.90;;;5.80;;
11865;SDS011;5992;52.744;6.898;2024-01-30T11:41:08;7.03;;;5.90;;
11865;SDS011;5992;52.744;6.898;2024-01-30T11:44:33;7.93;;;5.83;;
11865;SDS011;5992;52.744;6.898;2024-01-30T11:47:34;11.87;;;6.33;;
11865;SDS011;5992;52.744;6.898;2024-01-30T11:51:01;8.40;;;5.70;;
11865;SDS011;5992;52.744;6.898;2024-01-30T11:54:14;8.97;;;6.57;;
11865;SDS011;5992;52.744;6.898;2024-01-30T11:57:37;8.10;;;5.77;;
11865;SDS011;5992;52.744;6.898;2024-01-30T12:00:38;13.73;;;7.63;;
11865;SDS011;5992;52.744;6.898;2024-01-30T12:03:51;8.33;;;6.47;;
11865;SDS011;5992;52.744;6.898;2024-01-30T12:07:05;8.00;;;5.53;;
11865;SDS011;5992;52.744;6.898;2024-01-30T12:10:29;6.93;;;5.67;;
11865;SDS011;5992;52.744;6.898;2024-01-30T12:13:41;5.63;;;4.97;;
11865;SDS011;5992;52.744;6.898;2024-01-30T12:16:53;8.13;;;6.00;;
11865;SDS011;5992;52.744;6.898;2024-01-30T12:20:02;9.63;;;6.50;;
11865;SDS011;5992;52.744;6.898;2024-01-30T12:23:28;6.83;;;6.03;;
11865;SDS011;5992;52.744;6.898;2024-01-30T12:26:40;8.67;;;6.10;;
11865;SDS011;5992;52.744;6.898;2024-01-30T12:30:05;8.00;;;5.53;;
11865;SDS011;5992;52.744;6.898;2024-01-30T12:33:17;8.77;;;5.90;;
11865;SDS011;5992;52.744;6.898;2024-01-30T12:36:41;10.60;;;5.83;;
11865;SDS011;5992;52.744;6.898;2024-01-30T12:39:55;6.70;;;4.93;;
11865;SDS011;5992;52.744;6.898;2024-01-30T12:43:19;6.63;;;5.87;;
11865;SDS011;5992;52.744;6.898;2024-01-30T12:46:29;9.50;;;5.90;;
11865;SDS011;5992;52.744;6.898;2024-01-30T12:49:42;8.37;;;6.10;;
11865;SDS011;5992;52.744;6.898;2024-01-30T12:52:53;10.23;;;6.00;;
11865;SDS011;5992;52.744;6.898;2024-01-30T12:56:20;7.83;;;6.00;;
11865;SDS011;5992;52.744;6.898;2024-01-30T12:59:31;8.37;;;5.87;;
11865;SDS011;5992;52.744;6.898;2024-01-30T13:02:55;7.37;;;5.63;;
11865;SDS011;5992;52.744;6.898;2024-01-30T13:06:07;7.83;;;5.93;;
11865;SDS011;5992;52.744;6.898;2024-01-30T13:09:20;10.90;;;5.53;;
11865;SDS011;5992;52.744;6.898;2024-01-30T13:12:25;6.10;;;5.27;;
11865;SDS011;5992;52.744;6.898;2024-01-30T13:15:50;8.97;;;5.50;;
11865;SDS011;5992;52.744;6.898;2024-01-30T13:18:50;8.63;;;6.53;;
11865;SDS011;5992;52.744;6.898;2024-01-30T13:22:04;7.93;;;5.33;;
11865;SDS011;5992;52.744;6.898;2024-01-30T13:25:05;9.10;;;5.73;;
11865;SDS011;5992;52.744;6.898;2024-01-30T13:28:20;6.97;;;5.10;;
11865;SDS011;5992;52.744;6.898;2024-01-30T13:31:33;7.30;;;4.83;;
11865;SDS011;5992;52.744;6.898;2024-01-30T13:34:44;5.43;;;4.93;;
11865;SDS011;5992;52.744;6.898;2024-01-30T13:37:46;7.60;;;5.07;;
11865;SDS011;5992;52.744;6.898;2024-01-30T13:41:00;7.90;;;4.43;;
11865;SDS011;5992;52.744;6.898;2024-01-30T13:44:01;8.63;;;4.67;;
11865;SDS011;5992;52.744;6.898;2024-01-30T13:47:26;7.67;;;4.13;;
11865;SDS011;5992;52.744;6.898;2024-01-30T13:50:38;4.33;;;3.30;;
11865;SDS011;5992;52.744;6.898;2024-01-30T13:53:50;5.30;;;3.80;;
11865;SDS011;5992;52.744;6.898;2024-01-30T13:56:50;3.87;;;3.47;;
11865;SDS011;5992;52.744;6.898;2024-01-30T14:00:03;4.17;;;3.60;;
11865;SDS011;5992;52.744;6.898;2024-01-30T14:03:29;5.20;;;2.87;;
11865;SDS011;5992;52.744;6.898;2024-01-30T14:06:29;3.10;;;2.60;;
11865;SDS011;5992;52.744;6.898;2024-01-30T14:09:42;3.47;;;2.87;;
11865;SDS011;5992;52.744;6.898;2024-01-30T14:12:43;2.33;;;2.00;;
11865;SDS011;5992;52.744;6.898;2024-01-30T14:16:09;4.17;;;2.43;;
11865;SDS011;5992;52.744;6.898;2024-01-30T14:19:22;7.00;;;3.10;;
11865;SDS011;5992;52.744;6.898;2024-01-30T14:22:34;6.80;;;3.10;;
11865;SDS011;5992;52.744;6.898;2024-01-30T14:25:47;4.63;;;2.60;;
11865;SDS011;5992;52.744;6.898;2024-01-30T14:29:01;4.33;;;2.20;;
11865;SDS011;5992;52.744;6.898;2024-01-30T14:32:02;3.53;;;2.60;;
11865;SDS011;5992;52.744;6.898;2024-01-30T14:35:31;4.13;;;2.60;;
11865;SDS011;5992;52.744;6.898;2024-01-30T14:38:31;6.30;;;2.75;;
11865;SDS011;5992;52.744;6.898;2024-01-30T14:41:43;2.60;;;2.23;;
11865;SDS011;5992;52.744;6.898;2024-01-30T14:44:56;5.53;;;2.57;;
11865;SDS011;5992;52.744;6.898;2024-01-30T14:48:10;3.57;;;2.80;;
11865;SDS011;5992;52.744;6.898;2024-01-30T14:51:23;3.37;;;2.30;;
11865;SDS011;5992;52.744;6.898;2024-01-30T14:54:47;3.73;;;2.10;;
11865;SDS011;5992;52.744;6.898;2024-01-30T14:57:47;4.43;;;2.20;;
11865;SDS011;5992;52.744;6.898;2024-01-30T15:00:59;3.63;;;1.70;;
11865;SDS011;5992;52.744;6.898;2024-01-30T15:04:01;1.90;;;1.73;;
11865;SDS011;5992;52.744;6.898;2024-01-30T15:07:25;2.73;;;1.90;;
11865;SDS011;5992;52.744;6.898;2024-01-30T15:10:40;3.77;;;1.60;;
11865;SDS011;5992;52.744;6.898;2024-01-30T15:13:52;1.67;;;1.57;;
11865;SDS011;5992;52.744;6.898;2024-01-30T15:16:52;1.00;;;1.00;;
11865;SDS011;5992;52.744;6.898;2024-01-30T15:20:11;1.50;;;1.40;;
11865;SDS011;5992;52.744;6.898;2024-01-30T15:23:37;1.30;;;1.30;;
11865;SDS011;5992;52.744;6.898;2024-01-30T15:26:37;1.07;;;1.07;;
11865;SDS011;5992;52.744;6.898;2024-01-30T15:29:50;2.97;;;1.30;;
11865;SDS011;5992;52.744;6.898;2024-01-30T15:33:02;1.83;;;1.40;;
11865;SDS011;5992;52.744;6.898;2024-01-30T15:36:15;1.63;;;1.53;;
11865;SDS011;5992;52.744;6.898;2024-01-30T15:39:28;1.50;;;1.40;;
11865;SDS011;5992;52.744;6.898;2024-01-30T15:42:40;2.63;;;1.60;;
11865;SDS011;5992;52.744;6.898;2024-01-30T15:45:40;2.17;;;1.40;;
11865;SDS011;5992;52.744;6.898;2024-01-30T15:48:53;1.83;;;1.47;;
11865;SDS011;5992;52.744;6.898;2024-01-30T15:51:54;2.50;;;1.77;;
11865;SDS011;5992;52.744;6.898;2024-01-30T15:55:19;2.10;;;1.67;;
11865;SDS011;5992;52.744;6.898;2024-01-30T15:58:20;1.70;;;1.20;;
11865;SDS011;5992;52.744;6.898;2024-01-30T16:01:32;2.00;;;1.20;;
11865;SDS011;5992;52.744;6.898;2024-01-30T16:04:45;1.67;;;1.57;;
11865;SDS011;5992;52.744;6.898;2024-01-30T16:08:11;1.40;;;1.40;;
11865;SDS011;5992;52.744;6.898;2024-01-30T16:11:36;2.90;;;1.87;;
11865;SDS011;5992;52.744;6.898;2024-01-30T16:14:48;2.53;;;1.50;;
11865;SDS011;5992;52.744;6.898;2024-01-30T16:18:00;1.70;;;1.60;;
11865;SDS011;5992;52.744;6.898;2024-01-30T16:21:12;2.90;;;1.63;;
11865;SDS011;5992;52.744;6.898;2024-01-30T16:24:25;1.57;;;1.47;;
11865;SDS011;5992;52.744;6.898;2024-01-30T16:27:39;1.83;;;1.70;;
11865;SDS011;5992;52.744;6.898;2024-01-30T16:30:51;1.60;;;1.50;;
11865;SDS011;5992;52.744;6.898;2024-01-30T16:33:51;1.90;;;1.60;;
11865;SDS011;5992;52.744;6.898;2024-01-30T16:37:03;3.37;;;1.43;;
11865;SDS011;5992;52.744;6.898;2024-01-30T16:40:05;1.93;;;1.80;;
11865;SDS011;5992;52.744;6.898;2024-01-30T16:43:29;3.60;;;1.87;;
11865;SDS011;5992;52.744;6.898;2024-01-30T16:46:29;1.63;;;1.53;;
11865;SDS011;5992;52.744;6.898;2024-01-30T16:49:42;2.73;;;1.87;;
11865;SDS011;5992;52.744;6.898;2024-01-30T16:52:42;2.10;;;1.90;;
11865;SDS011;5992;52.744;6.898;2024-01-30T16:55:56;2.33;;;2.23;;
11865;SDS011;5992;52.744;6.898;2024-01-30T16:59:08;1.87;;;1.77;;
11865;SDS011;5992;52.744;6.898;2024-01-30T17:02:22;2.13;;;1.97;;
11865;SDS011;5992;52.744;6.898;2024-01-30T17:05:22;2.10;;;2.00;;
11865;SDS011;5992;52.744;6.898;2024-01-30T17:08:34;1.87;;;1.77;;
11865;SDS011;5992;52.744;6.898;2024-01-30T17:11:40;2.53;;;2.43;;
11865;SDS011;5992;52.744;6.898;2024-01-30T17:15:04;2.20;;;2.00;;
11865;SDS011;5992;52.744;6.898;2024-01-30T17:18:04;2.67;;;1.67;;
11865;SDS011;5992;52.744;6.898;2024-01-30T17:21:17;2.80;;;2.40;;
11865;SDS011;5992;52.744;6.898;2024-01-30T17:24:29;2.90;;;2.10;;
11865;SDS011;5992;52.744;6.898;2024-01-30T17:27:43;2.60;;;2.43;;
11865;SDS011;5992;52.744;6.898;2024-01-30T17:30:56;2.67;;;2.20;;
11865;SDS011;5992;52.744;6.898;2024-01-30T17:34:08;2.53;;;2.20;;
11865;SDS011;5992;52.744;6.898;2024-01-30T17:37:08;2.57;;;2.37;;
11865;SDS011;5992;52.744;6.898;2024-01-30T17:40:20;3.27;;;2.97;;
11865;SDS011;5992;52.744;6.898;2024-01-30T17:43:22;2.50;;;2.40;;
11865;SDS011;5992;52.744;6.898;2024-01-30T17:46:46;2.10;;;2.00;;
11865;SDS011;5992;52.744;6.898;2024-01-30T17:49:47;2.33;;;2.23;;
11865;SDS011;5992;52.744;6.898;2024-01-30T17:53:00;2.27;;;2.10;;
11865;SDS011;5992;52.744;6.898;2024-01-30T17:56:01;2.10;;;2.00;;
11865;SDS011;5992;52.744;6.898;2024-01-30T17:59:15;2.20;;;2.00;;
11865;SDS011;5992;52.744;6.898;2024-01-30T18:02:27;2.73;;;2.53;;
11865;SDS011;5992;52.744;6.898;2024-01-30T18:05:39;2.80;;;2.10;;
11865;SDS011;5992;52.744;6.898;2024-01-30T18:08:39;2.57;;;2.37;;
11865;SDS011;5992;52.744;6.898;2024-01-30T18:11:51;4.47;;;2.20;;
11865;SDS011;5992;52.744;6.898;2024-01-30T18:15:06;2.55;;;2.30;;
11865;SDS011;5992;52.744;6.898;2024-01-30T18:18:30;2.30;;;1.83;;
11865;SDS011;5992;52.744;6.898;2024-01-30T18:21:30;1.60;;;1.50;;
11865;SDS011;5992;52.744;6.898;2024-01-30T18:24:42;2.20;;;2.00;;
11865;SDS011;5992;52.744;6.898;2024-01-30T18:27:42;2.00;;;1.90;;
11865;SDS011;5992;52.744;6.898;2024-01-30T18:30:57;1.53;;;1.43;;
11865;SDS011;5992;52.744;6.898;2024-01-30T18:34:09;1.80;;;1.70;;
11865;SDS011;5992;52.744;6.898;2024-01-30T18:37:21;3.93;;;1.90;;
11865;SDS011;5992;52.744;6.898;2024-01-30T18:40:21;2.83;;;1.93;;
11865;SDS011;5992;52.744;6.898;2024-01-30T18:43:34;5.60;;;2.00;;
11865;SDS011;5992;52.744;6.898;2024-01-30T18:46:36;1.53;;;1.43;;
11865;SDS011;5992;52.744;6.898;2024-01-30T18:50:01;5.13;;;1.50;;
11865;SDS011;5992;52.744;6.898;2024-01-30T18:53:01;1.87;;;1.70;;
11865;SDS011;5992;52.744;6.898;2024-01-30T18:56:14;2.00;;;1.83;;
11865;SDS011;5992;52.744;6.898;2024-01-30T18:59:18;3.23;;;1.77;;
11865;SDS011;5992;52.744;6.898;2024-01-30T19:02:35;1.97;;;1.67;;
11865;SDS011;5992;52.744;6.898;2024-01-30T19:05:49;3.17;;;1.60;;
11865;SDS011;5992;52.744;6.898;2024-01-30T19:09:02;3.73;;;1.63;;
11865;SDS011;5992;52.744;6.898;2024-01-30T19:12:14;3.13;;;1.97;;
11865;SDS011;5992;52.744;6.898;2024-01-30T19:15:30;4.00;;;1.55;;
11865;SDS011;5992;52.744;6.898;2024-01-30T19:18:31;2.83;;;1.60;;
11865;SDS011;5992;52.744;6.898;2024-01-30T19:21:57;4.50;;;1.50;;
11865;SDS011;5992;52.744;6.898;2024-01-30T19:24:57;4.83;;;2.40;;
11865;SDS011;5992;52.744;6.898;2024-01-30T19:28:09;2.77;;;1.50;;
11865;SDS011;5992;52.744;6.898;2024-01-30T19:31:09;3.43;;;1.33;;
11865;SDS011;5992;52.744;6.898;2024-01-30T19:34:22;1.90;;;1.40;;
11865;SDS011;5992;52.744;6.898;2024-01-30T19:37:35;8.30;;;1.80;;
11865;SDS011;5992;52.744;6.898;2024-01-30T19:40:47;6.43;;;1.63;;
11865;SDS011;5992;52.744;6.898;2024-01-30T19:43:50;8.23;;;1.70;;
11865;SDS011;5992;52.744;6.898;2024-01-30T19:47:06;3.70;;;1.30;;
11865;SDS011;5992;52.744;6.898;2024-01-30T19:50:19;4.47;;;1.80;;
11865;SDS011;5992;52.744;6.898;2024-01-30T19:53:48;2.77;;;1.10;;
11865;SDS011;5992;52.744;6.898;2024-01-30T19:56:48;2.30;;;1.50;;